createdAt,value
2019-05-28T00:00:01.083Z,0.00
2019-05-28T00:00:48.418Z,0.00
2019-05-28T00:01:48.372Z,0.00
2019-05-28T00:02:48.321Z,0.00
2019-05-28T00:03:48.298Z,0.00
2019-05-28T00:04:48.221Z,0.00
2019-05-28T00:05:48.192Z,0.00
2019-05-28T00:06:48.124Z,0.00
2019-05-28T00:07:48.073Z,0.00
2019-05-28T00:08:48.021Z,0.00
2019-05-28T00:09:47.996Z,0.00
2019-05-28T00:10:47.923Z,0.00
2019-05-28T00:11:47.876Z,0.00
2019-05-28T00:12:47.823Z,0.00
2019-05-28T00:13:47.792Z,0.00
2019-05-28T00:14:47.746Z,0.00
2019-05-28T00:15:47.676Z,0.00
2019-05-28T00:16:47.623Z,0.00
2019-05-28T00:17:47.575Z,0.00
2019-05-28T00:18:47.525Z,0.00
2019-05-28T00:19:47.497Z,0.00
2019-05-28T00:20:47.427Z,0.00
2019-05-28T00:21:47.375Z,0.00
2019-05-28T00:22:47.326Z,0.00
2019-05-28T00:23:47.275Z,0.00
2019-05-28T00:24:47.254Z,0.00
2019-05-28T00:25:47.179Z,0.00
2019-05-28T00:26:47.126Z,0.00
2019-05-28T00:27:47.077Z,0.00
2019-05-28T00:28:47.032Z,0.00
2019-05-28T00:29:46.999Z,0.00
2019-05-28T00:30:46.927Z,0.00
2019-05-28T00:31:46.878Z,0.00
2019-05-28T00:32:46.827Z,0.00
2019-05-28T00:33:46.776Z,0.00
2019-05-28T00:34:46.747Z,0.00
2019-05-28T00:35:46.678Z,0.00
2019-05-28T00:36:46.634Z,0.00
2019-05-28T00:37:46.579Z,0.00
2019-05-28T00:38:46.524Z,0.00
2019-05-28T00:39:46.508Z,0.00
2019-05-28T00:40:46.427Z,0.00
2019-05-28T00:41:46.376Z,0.00
2019-05-28T00:42:46.328Z,0.00
2019-05-28T00:43:46.284Z,0.00
2019-05-28T00:44:46.257Z,0.00
2019-05-28T00:45:46.179Z,0.00
2019-05-28T00:46:46.132Z,0.00
2019-05-28T00:47:46.076Z,0.00
2019-05-28T00:48:46.026Z,0.00
2019-05-28T00:49:49.511Z,0.00
2019-05-28T00:50:45.924Z,0.00
2019-05-28T00:51:45.874Z,0.00
2019-05-28T00:52:45.825Z,0.00
2019-05-28T00:53:45.780Z,0.00
2019-05-28T00:54:45.748Z,0.00
2019-05-28T00:55:45.675Z,0.00
2019-05-28T00:56:45.664Z,0.00
2019-05-28T00:57:45.571Z,0.00
2019-05-28T00:58:45.521Z,0.00
2019-05-28T00:59:45.494Z,0.00
2019-05-28T01:00:45.420Z,0.00
2019-05-28T01:01:45.371Z,0.00
2019-05-28T01:02:45.317Z,0.00
2019-05-28T01:03:45.270Z,0.00
2019-05-28T01:04:45.262Z,0.00
2019-05-28T01:05:45.168Z,0.00
2019-05-28T01:06:45.139Z,0.00
2019-05-28T01:07:45.067Z,0.00
2019-05-28T01:08:45.014Z,0.00
2019-05-28T01:09:44.988Z,0.00
2019-05-28T01:10:44.914Z,0.00
2019-05-28T01:11:44.862Z,0.00
2019-05-28T01:12:44.812Z,0.00
2019-05-28T01:13:44.762Z,0.00
2019-05-28T01:14:44.746Z,0.00
2019-05-28T01:15:44.659Z,0.00
2019-05-28T01:16:44.611Z,0.00
2019-05-28T01:17:44.559Z,0.00
2019-05-28T01:18:44.513Z,0.00
2019-05-28T01:19:44.461Z,0.00
2019-05-28T01:20:44.432Z,0.00
2019-05-28T01:21:44.358Z,0.00
2019-05-28T01:22:44.315Z,0.00
2019-05-28T01:23:44.254Z,0.00
2019-05-28T01:24:44.205Z,0.00
2019-05-28T01:25:44.176Z,0.00
2019-05-28T01:26:44.103Z,0.00
2019-05-28T01:27:44.050Z,0.00
2019-05-28T01:28:44.000Z,0.00
2019-05-28T01:29:43.950Z,0.00
2019-05-28T01:30:55.752Z,0.00
2019-05-28T01:31:43.845Z,0.00
2019-05-28T01:32:43.798Z,0.00
2019-05-28T01:33:43.747Z,0.00
2019-05-28T01:34:43.693Z,0.00
2019-05-28T01:35:43.667Z,0.00
2019-05-28T01:36:43.594Z,0.00
2019-05-28T01:37:43.539Z,0.00
2019-05-28T01:38:43.490Z,0.00
2019-05-28T01:39:43.439Z,0.00
2019-05-28T01:40:43.413Z,0.00
2019-05-28T01:41:43.341Z,0.00
2019-05-28T01:42:43.291Z,0.00
2019-05-28T01:43:43.239Z,0.00
2019-05-28T01:44:43.184Z,0.00
2019-05-28T01:45:43.160Z,0.00
2019-05-28T01:46:43.086Z,0.00
2019-05-28T01:47:43.030Z,0.00
2019-05-28T01:48:42.980Z,0.00
2019-05-28T01:49:42.927Z,0.00
2019-05-28T01:50:42.898Z,0.00
2019-05-28T01:51:42.825Z,0.00
2019-05-28T01:52:42.788Z,0.00
2019-05-28T01:53:42.721Z,0.00
2019-05-28T01:54:42.672Z,0.00
2019-05-28T01:55:42.643Z,0.00
2019-05-28T01:56:42.570Z,0.00
2019-05-28T01:57:42.518Z,0.00
2019-05-28T01:58:42.466Z,0.00
2019-05-28T01:59:42.417Z,0.00
2019-05-28T02:00:42.392Z,0.00
2019-05-28T02:01:42.314Z,0.00
2019-05-28T02:02:42.314Z,0.00
2019-05-28T02:03:42.210Z,0.00
2019-05-28T02:04:42.182Z,0.00
2019-05-28T02:05:42.132Z,0.00
2019-05-28T02:06:42.058Z,0.00
2019-05-28T02:07:42.003Z,0.00
2019-05-28T02:08:41.963Z,0.00
2019-05-28T02:09:41.909Z,0.00
2019-05-28T02:10:41.879Z,0.00
2019-05-28T02:11:41.799Z,0.00
2019-05-28T02:12:41.750Z,0.00
2019-05-28T02:13:41.697Z,0.00
2019-05-28T02:14:41.688Z,0.00
2019-05-28T02:15:41.617Z,0.00
2019-05-28T02:16:41.544Z,0.00
2019-05-28T02:17:41.496Z,0.00
2019-05-28T02:18:41.438Z,0.00
2019-05-28T02:19:41.392Z,0.00
2019-05-28T02:20:41.361Z,0.00
2019-05-28T02:21:41.285Z,0.00
2019-05-28T02:22:41.263Z,0.00
2019-05-28T02:23:41.181Z,0.00
2019-05-28T02:24:41.128Z,0.00
2019-05-28T02:25:41.101Z,0.00
2019-05-28T02:26:41.029Z,0.00
2019-05-28T02:27:40.975Z,0.00
2019-05-28T02:28:40.924Z,0.00
2019-05-28T02:29:40.872Z,0.00
2019-05-28T02:30:40.852Z,0.00
2019-05-28T02:31:40.770Z,0.00
2019-05-28T02:32:40.729Z,0.00
2019-05-28T02:33:40.665Z,0.00
2019-05-28T02:34:40.625Z,0.00
2019-05-28T02:35:40.605Z,0.00
2019-05-28T02:36:40.508Z,0.00
2019-05-28T02:37:40.460Z,0.00
2019-05-28T02:38:40.406Z,0.00
2019-05-28T02:39:40.354Z,0.00
2019-05-28T02:40:40.304Z,0.00
2019-05-28T02:41:40.278Z,0.00
2019-05-28T02:42:40.202Z,0.00
2019-05-28T02:43:40.149Z,0.00
2019-05-28T02:44:40.098Z,0.00
2019-05-28T02:45:40.047Z,0.00
2019-05-28T02:46:47.147Z,0.00
2019-05-28T02:47:39.973Z,0.00
2019-05-28T02:48:39.923Z,0.00
2019-05-28T02:49:39.872Z,0.00
2019-05-28T02:50:39.818Z,4.00
2019-05-28T02:51:39.791Z,4.00
2019-05-28T02:52:39.717Z,4.00
2019-05-28T02:53:39.666Z,4.00
2019-05-28T02:54:39.613Z,0.00
2019-05-28T02:55:39.602Z,0.00
2019-05-28T02:56:39.536Z,4.00
2019-05-28T02:57:39.460Z,4.00
2019-05-28T02:58:39.410Z,4.00
2019-05-28T02:59:39.355Z,4.00
2019-05-28T03:00:39.300Z,4.00
2019-05-28T03:01:43.973Z,4.00
2019-05-28T03:02:39.204Z,4.00
2019-05-28T03:03:39.142Z,8.00
2019-05-28T03:04:39.099Z,8.00
2019-05-28T03:05:39.047Z,8.00
2019-05-28T03:06:39.016Z,12.00
2019-05-28T03:07:38.940Z,8.00
2019-05-28T03:08:38.894Z,12.00
2019-05-28T03:09:38.870Z,12.00
2019-05-28T03:11:01.503Z,16.00
2019-05-28T03:11:38.760Z,16.00
2019-05-28T03:12:38.687Z,16.00
2019-05-28T03:13:38.634Z,20.00
2019-05-28T03:14:38.590Z,20.00
2019-05-28T03:15:38.532Z,20.00
2019-05-28T03:16:38.499Z,24.00
2019-05-28T03:17:38.426Z,28.00
2019-05-28T03:18:38.377Z,28.00
2019-05-28T03:19:38.320Z,32.00
2019-05-28T03:20:38.277Z,32.00
2019-05-28T03:21:38.249Z,32.00
2019-05-28T03:22:38.166Z,32.00
2019-05-28T03:23:38.118Z,36.00
2019-05-28T03:24:38.062Z,36.00
2019-05-28T03:25:38.018Z,40.00
2019-05-28T03:26:37.989Z,40.00
2019-05-28T03:27:37.910Z,40.00
2019-05-28T03:28:37.862Z,40.00
2019-05-28T03:29:37.807Z,40.00
2019-05-28T03:30:37.761Z,44.00
2019-05-28T03:31:37.737Z,44.00
2019-05-28T03:32:37.655Z,52.00
2019-05-28T03:33:37.603Z,56.00
2019-05-28T03:34:37.549Z,56.00
2019-05-28T03:35:37.499Z,56.00
2019-05-28T03:36:37.472Z,60.00
2019-05-28T03:37:37.396Z,68.00
2019-05-28T03:38:37.350Z,76.00
2019-05-28T03:39:37.300Z,80.00
2019-05-28T03:40:37.240Z,88.00
2019-05-28T03:41:37.222Z,92.00
2019-05-28T03:42:37.152Z,104.00
2019-05-28T03:43:37.130Z,116.00
2019-05-28T03:44:37.043Z,132.00
2019-05-28T03:45:36.989Z,144.00
2019-05-28T03:46:36.961Z,160.00
2019-05-28T03:47:36.882Z,172.00
2019-05-28T03:48:36.840Z,184.00
2019-05-28T03:49:36.792Z,192.00
2019-05-28T03:50:36.732Z,196.00
2019-05-28T03:51:36.705Z,196.00
2019-05-28T03:52:36.630Z,188.00
2019-05-28T03:53:36.587Z,184.00
2019-05-28T03:54:36.526Z,176.00
2019-05-28T03:55:36.474Z,172.00
2019-05-28T03:56:36.579Z,164.00
2019-05-28T03:57:36.377Z,164.00
2019-05-28T03:58:36.325Z,156.00
2019-05-28T03:59:36.273Z,156.00
2019-05-28T04:00:36.229Z,156.00
2019-05-28T04:01:36.176Z,152.00
2019-05-28T04:02:36.150Z,148.00
2019-05-28T04:03:36.071Z,136.00
2019-05-28T04:04:36.020Z,136.00
2019-05-28T04:05:35.966Z,132.00
2019-05-28T04:06:35.913Z,144.00
2019-05-28T04:07:35.889Z,160.00
2019-05-28T04:08:35.810Z,176.00
2019-05-28T04:09:35.760Z,184.00
2019-05-28T04:10:35.712Z,204.00
2019-05-28T04:11:44.460Z,220.00
2019-05-28T04:12:35.630Z,228.00
2019-05-28T04:13:35.565Z,232.00
2019-05-28T04:14:35.510Z,240.00
2019-05-28T04:15:35.458Z,236.00
2019-05-28T04:16:35.403Z,224.00
2019-05-28T04:17:35.377Z,228.00
2019-05-28T04:18:35.300Z,252.00
2019-05-28T04:19:35.251Z,288.00
2019-05-28T04:20:35.199Z,316.00
2019-05-28T04:21:35.150Z,344.00
2019-05-28T04:22:35.121Z,356.00
2019-05-28T04:23:35.052Z,340.00
2019-05-28T04:24:34.993Z,332.00
2019-05-28T04:25:34.945Z,324.00
2019-05-28T04:26:34.898Z,316.00
2019-05-28T04:27:34.874Z,308.00
2019-05-28T04:28:34.790Z,320.00
2019-05-28T04:29:34.743Z,316.00
2019-05-28T04:30:34.691Z,324.00
2019-05-28T04:31:34.634Z,312.00
2019-05-28T04:32:40.340Z,308.00
2019-05-28T04:33:34.534Z,300.00
2019-05-28T04:34:34.487Z,340.00
2019-05-28T04:35:34.431Z,400.00
2019-05-28T04:36:34.385Z,392.00
2019-05-28T04:37:34.357Z,376.00
2019-05-28T04:38:34.282Z,388.00
2019-05-28T04:39:35.474Z,452.00
2019-05-28T04:40:34.174Z,488.00
2019-05-28T04:41:34.129Z,520.00
2019-05-28T04:42:34.099Z,588.00
2019-05-28T04:43:34.024Z,628.00
2019-05-28T04:44:33.968Z,648.00
2019-05-28T04:45:33.924Z,616.00
2019-05-28T04:46:33.870Z,616.00
2019-05-28T04:47:33.854Z,612.00
2019-05-28T04:48:33.772Z,604.00
2019-05-28T04:49:33.722Z,580.00
2019-05-28T04:50:33.669Z,584.00
2019-05-28T04:51:33.622Z,596.00
2019-05-28T04:52:33.597Z,584.00
2019-05-28T04:53:33.517Z,584.00
2019-05-28T04:54:33.467Z,584.00
2019-05-28T04:55:33.422Z,588.00
2019-05-28T04:56:33.361Z,604.00
2019-05-28T04:57:33.338Z,620.00
2019-05-28T04:58:33.262Z,604.00
2019-05-28T04:59:33.211Z,592.00
2019-05-28T05:00:33.157Z,592.00
2019-05-28T05:01:33.104Z,604.00
2019-05-28T05:02:33.125Z,632.00
2019-05-28T05:03:33.007Z,672.00
2019-05-28T05:04:32.957Z,720.00
2019-05-28T05:05:32.906Z,760.00
2019-05-28T05:06:32.855Z,772.00
2019-05-28T05:07:32.827Z,784.00
2019-05-28T05:08:32.768Z,820.00
2019-05-28T05:09:32.711Z,852.00
2019-05-28T05:10:32.654Z,908.00
2019-05-28T05:11:32.602Z,956.00
2019-05-28T05:12:32.613Z,1000.00
2019-05-28T05:13:32.506Z,1076.00
2019-05-28T05:14:32.449Z,1100.00
2019-05-28T05:15:32.408Z,1040.00
2019-05-28T05:16:32.349Z,1024.00
2019-05-28T05:17:32.326Z,992.00
2019-05-28T05:18:32.243Z,940.00
2019-05-28T05:19:32.195Z,904.00
2019-05-28T05:20:32.144Z,880.00
2019-05-28T05:21:35.514Z,860.00
2019-05-28T05:22:32.088Z,884.00
2019-05-28T05:23:31.994Z,892.00
2019-05-28T05:24:31.942Z,880.00
2019-05-28T05:25:31.894Z,864.00
2019-05-28T05:26:31.840Z,888.00
2019-05-28T05:27:31.792Z,940.00
2019-05-28T05:28:31.765Z,968.00
2019-05-28T05:29:31.709Z,1004.00
2019-05-28T05:30:31.639Z,960.00
2019-05-28T05:31:31.591Z,988.00
2019-05-28T05:32:31.535Z,1064.00
2019-05-28T05:33:31.513Z,1092.00
2019-05-28T05:34:31.445Z,1092.00
2019-05-28T05:35:31.501Z,1100.00
2019-05-28T05:36:31.340Z,1148.00
2019-05-28T05:37:31.288Z,1176.00
2019-05-28T05:38:31.254Z,1248.00
2019-05-28T05:39:31.189Z,1368.00
2019-05-28T05:40:31.137Z,1472.00
2019-05-28T05:41:31.085Z,1516.00
2019-05-28T05:42:31.033Z,1504.00
2019-05-28T05:43:31.005Z,1628.00
2019-05-28T05:44:30.931Z,1896.00
2019-05-28T05:45:30.883Z,2064.00
2019-05-28T05:46:30.858Z,2180.00
2019-05-28T05:47:30.819Z,2236.00
2019-05-28T05:48:30.778Z,2308.00
2019-05-28T05:49:30.681Z,2396.00
2019-05-28T05:50:30.626Z,2488.00
2019-05-28T05:51:30.580Z,2492.00
2019-05-28T05:52:30.530Z,2472.00
2019-05-28T05:53:30.516Z,2484.00
2019-05-28T05:54:30.426Z,2508.00
2019-05-28T05:55:30.376Z,2496.00
2019-05-28T05:56:30.326Z,2516.00
2019-05-28T05:57:30.278Z,2484.00
2019-05-28T05:58:30.248Z,2432.00
2019-05-28T05:59:30.173Z,2348.00
2019-05-28T06:00:30.125Z,2268.00
2019-05-28T06:01:30.073Z,2208.00
2019-05-28T06:02:30.024Z,2236.00
2019-05-28T06:03:40.338Z,2296.00
2019-05-28T06:04:29.922Z,2352.00
2019-05-28T06:05:29.871Z,2516.00
2019-05-28T06:06:29.820Z,2736.00
2019-05-28T06:07:29.775Z,3112.00
2019-05-28T06:08:29.756Z,3456.00
2019-05-28T06:09:29.672Z,3572.00
2019-05-28T06:10:29.620Z,3404.00
2019-05-28T06:11:29.575Z,3192.00
2019-05-28T06:12:29.520Z,3192.00
2019-05-28T06:13:29.493Z,3212.00
2019-05-28T06:14:29.423Z,3244.00
2019-05-28T06:15:29.367Z,3312.00
2019-05-28T06:16:29.319Z,3352.00
2019-05-28T06:17:29.269Z,3280.00
2019-05-28T06:18:29.238Z,3412.00
2019-05-28T06:19:29.172Z,3348.00
2019-05-28T06:20:29.115Z,3280.00
2019-05-28T06:21:29.075Z,3308.00
2019-05-28T06:22:29.011Z,3456.00
2019-05-28T06:23:29.001Z,3588.00
2019-05-28T06:24:28.916Z,3844.00
2019-05-28T06:25:28.876Z,4184.00
2019-05-28T06:26:28.820Z,4356.00
2019-05-28T06:27:28.761Z,4304.00
2019-05-28T06:28:28.734Z,4172.00
2019-05-28T06:29:28.666Z,3916.00
2019-05-28T06:30:28.624Z,3520.00
2019-05-28T06:31:28.589Z,3160.00
2019-05-28T06:32:28.522Z,2912.00
2019-05-28T06:33:28.492Z,2908.00
2019-05-28T06:34:28.413Z,2760.00
2019-05-28T06:35:28.367Z,2424.00
2019-05-28T06:36:28.315Z,2212.00
2019-05-28T06:37:28.273Z,2040.00
2019-05-28T06:38:28.243Z,1896.00
2019-05-28T06:39:28.162Z,1796.00
2019-05-28T06:40:28.113Z,1732.00
2019-05-28T06:41:28.061Z,1696.00
2019-05-28T06:42:28.015Z,1652.00
2019-05-28T06:43:28.005Z,1628.00
2019-05-28T06:44:27.918Z,1648.00
2019-05-28T06:45:27.867Z,1656.00
2019-05-28T06:46:27.823Z,1644.00
2019-05-28T06:47:27.837Z,1632.00
2019-05-28T06:48:27.752Z,1600.00
2019-05-28T06:49:27.665Z,1560.00
2019-05-28T06:50:27.619Z,1572.00
2019-05-28T06:51:27.565Z,1596.00
2019-05-28T06:52:27.517Z,1620.00
2019-05-28T06:53:27.489Z,1656.00
2019-05-28T06:54:27.418Z,1692.00
2019-05-28T06:55:27.370Z,1752.00
2019-05-28T06:56:27.315Z,1824.00
2019-05-28T06:57:27.273Z,1860.00
2019-05-28T06:58:38.860Z,1856.00
2019-05-28T06:59:27.165Z,1864.00
2019-05-28T07:00:27.121Z,1912.00
2019-05-28T07:01:28.577Z,2000.00
2019-05-28T07:02:27.022Z,2132.00
2019-05-28T07:03:26.960Z,2256.00
2019-05-28T07:04:32.573Z,2384.00
2019-05-28T07:05:26.862Z,2476.00
2019-05-28T07:06:26.814Z,2528.00
2019-05-28T07:07:26.775Z,2516.00
2019-05-28T07:08:26.720Z,2476.00
2019-05-28T07:09:26.689Z,2368.00
2019-05-28T07:10:26.613Z,2204.00
2019-05-28T07:11:26.564Z,2052.00
2019-05-28T07:12:26.519Z,1972.00
2019-05-28T07:13:26.542Z,1916.00
2019-05-28T07:14:26.435Z,1896.00
2019-05-28T07:15:26.359Z,1944.00
2019-05-28T07:16:26.311Z,2020.00
2019-05-28T07:17:26.261Z,2156.00
2019-05-28T07:18:26.211Z,2244.00
2019-05-28T07:19:26.182Z,2260.00
2019-05-28T07:20:26.111Z,2200.00
2019-05-28T07:21:26.060Z,2084.00
2019-05-28T07:22:26.012Z,1984.00
2019-05-28T07:23:25.952Z,1852.00
2019-05-28T07:24:25.937Z,1708.00
2019-05-28T07:25:25.857Z,1588.00
2019-05-28T07:26:25.813Z,1472.00
2019-05-28T07:27:25.754Z,1384.00
2019-05-28T07:28:25.703Z,1288.00
2019-05-28T07:29:25.685Z,1240.00
2019-05-28T07:30:25.609Z,1212.00
2019-05-28T07:31:25.553Z,1200.00
2019-05-28T07:32:25.502Z,1164.00
2019-05-28T07:33:25.459Z,1112.00
2019-05-28T07:34:30.626Z,1080.00
2019-05-28T07:35:25.353Z,1088.00
2019-05-28T07:36:25.300Z,1124.00
2019-05-28T07:37:25.292Z,1172.00
2019-05-28T07:38:25.198Z,1200.00
2019-05-28T07:39:25.180Z,1224.00
2019-05-28T07:40:31.794Z,1236.00
2019-05-28T07:41:25.048Z,1276.00
2019-05-28T07:42:32.784Z,1356.00
2019-05-28T07:43:24.949Z,1436.00
2019-05-28T07:44:24.926Z,1472.00
2019-05-28T07:45:24.852Z,1504.00
2019-05-28T07:46:24.816Z,1568.00
2019-05-28T07:47:24.745Z,1672.00
2019-05-28T07:48:24.695Z,1764.00
2019-05-28T07:49:24.668Z,1844.00
2019-05-28T07:50:24.598Z,1856.00
2019-05-28T07:51:24.541Z,1876.00
2019-05-28T07:52:24.492Z,1928.00
2019-05-28T07:53:38.742Z,2012.00
2019-05-28T07:54:24.417Z,2188.00
2019-05-28T07:55:24.339Z,2404.00
2019-05-28T07:56:24.292Z,2628.00
2019-05-28T07:57:24.241Z,2900.00
2019-05-28T07:58:24.186Z,2844.00
2019-05-28T07:59:24.166Z,2488.00
2019-05-28T08:00:24.089Z,2180.00
2019-05-28T08:01:24.098Z,2092.00
2019-05-28T08:02:23.985Z,2120.00
2019-05-28T08:03:23.942Z,2180.00
2019-05-28T08:04:23.904Z,2288.00
2019-05-28T08:05:23.831Z,2432.00
2019-05-28T08:06:23.789Z,2508.00
2019-05-28T08:07:23.735Z,2492.00
2019-05-28T08:08:23.684Z,2520.00
2019-05-28T08:09:23.652Z,2756.00
2019-05-28T08:10:23.577Z,2844.00
2019-05-28T08:11:23.526Z,3160.00
2019-05-28T08:12:23.480Z,3324.00
2019-05-28T08:13:37.543Z,3584.00
2019-05-28T08:14:23.400Z,3720.00
2019-05-28T08:15:23.329Z,3856.00
2019-05-28T08:16:24.265Z,3860.00
2019-05-28T08:17:23.227Z,3696.00
2019-05-28T08:18:23.173Z,3468.00
2019-05-28T08:19:23.142Z,3580.00
2019-05-28T08:20:23.069Z,3396.00
2019-05-28T08:21:23.029Z,3380.00
2019-05-28T08:22:22.976Z,3324.00
2019-05-28T08:23:22.917Z,3500.00
2019-05-28T08:24:23.187Z,3832.00
2019-05-28T08:25:44.830Z,4268.00
2019-05-28T08:26:22.770Z,4432.00
2019-05-28T08:27:22.717Z,4680.00
2019-05-28T08:28:22.669Z,4628.00
2019-05-28T08:29:22.648Z,4772.00
2019-05-28T08:30:22.570Z,4788.00
2019-05-28T08:31:22.518Z,4524.00
2019-05-28T08:32:22.466Z,4536.00
2019-05-28T08:33:22.416Z,4916.00
2019-05-28T08:34:22.405Z,4840.00
2019-05-28T08:35:22.312Z,5352.00
2019-05-28T08:36:22.264Z,5412.00
2019-05-28T08:37:22.220Z,5316.00
2019-05-28T08:38:22.172Z,5508.00
2019-05-28T08:39:22.118Z,5296.00
2019-05-28T08:40:22.087Z,5580.00
2019-05-28T08:41:22.014Z,5992.00
2019-05-28T08:42:21.963Z,5936.00
2019-05-28T08:43:21.910Z,5700.00
2019-05-28T08:44:21.866Z,5800.00
2019-05-28T08:45:21.834Z,5800.00
2019-05-28T08:46:21.765Z,5856.00
2019-05-28T08:47:29.669Z,5716.00
2019-05-28T08:48:21.664Z,5640.00
2019-05-28T08:49:23.927Z,5640.00
2019-05-28T08:50:33.883Z,5440.00
2019-05-28T08:51:21.510Z,4904.00
2019-05-28T08:52:21.463Z,4556.00
2019-05-28T08:53:21.424Z,4896.00
2019-05-28T08:54:21.371Z,4764.00
2019-05-28T08:55:21.338Z,5204.00
2019-05-28T08:56:21.274Z,5484.00
2019-05-28T08:57:21.227Z,5680.00
2019-05-28T08:58:21.167Z,5800.00
2019-05-28T08:59:21.116Z,5652.00
2019-05-28T09:00:21.108Z,5480.00
2019-05-28T09:01:21.033Z,5292.00
2019-05-28T09:02:28.007Z,5092.00
2019-05-28T09:03:20.916Z,5228.00
2019-05-28T09:04:20.878Z,5912.00
2019-05-28T09:05:26.473Z,6480.00
2019-05-28T09:06:24.528Z,7000.00
2019-05-28T09:07:20.738Z,6928.00
2019-05-28T09:08:35.561Z,6584.00
2019-05-28T09:09:20.633Z,6616.00
2019-05-28T09:10:20.612Z,6860.00
2019-05-28T09:11:20.536Z,6884.00
2019-05-28T09:12:20.487Z,6748.00
2019-05-28T09:13:20.432Z,6328.00
2019-05-28T09:14:20.385Z,5992.00
2019-05-28T09:15:20.377Z,5364.00
2019-05-28T09:16:20.288Z,5400.00
2019-05-28T09:17:20.248Z,5296.00
2019-05-28T09:18:20.192Z,5328.00
2019-05-28T09:19:20.144Z,5436.00
2019-05-28T09:20:20.147Z,5332.00
2019-05-28T09:21:20.046Z,5820.00
2019-05-28T09:22:25.817Z,6404.00
2019-05-28T09:23:19.946Z,6736.00
2019-05-28T09:24:19.907Z,6416.00
2019-05-28T09:25:19.884Z,6280.00
2019-05-28T09:26:19.812Z,6220.00
2019-05-28T09:27:19.759Z,6284.00
2019-05-28T09:28:30.186Z,6132.00
2019-05-28T09:29:19.662Z,5340.00
2019-05-28T09:30:19.645Z,4956.00
2019-05-28T09:31:19.568Z,4408.00
2019-05-28T09:32:19.514Z,3820.00
2019-05-28T09:33:19.481Z,3508.00
2019-05-28T09:34:19.419Z,3156.00
2019-05-28T09:35:19.415Z,2916.00
2019-05-28T09:36:19.324Z,2920.00
2019-05-28T09:37:19.270Z,2904.00
2019-05-28T09:38:19.230Z,2852.00
2019-05-28T09:39:19.174Z,2672.00
2019-05-28T09:40:19.165Z,2608.00
2019-05-28T09:41:19.082Z,2532.00
2019-05-28T09:42:19.035Z,2620.00
2019-05-28T09:43:18.987Z,2792.00
2019-05-28T09:44:18.937Z,2964.00
2019-05-28T09:45:22.864Z,3076.00
2019-05-28T09:46:18.842Z,3080.00
2019-05-28T09:47:18.789Z,3012.00
2019-05-28T09:48:18.738Z,2988.00
2019-05-28T09:49:18.697Z,3060.00
2019-05-28T09:50:30.055Z,2964.00
2019-05-28T09:51:18.610Z,2828.00
2019-05-28T09:52:18.552Z,2764.00
2019-05-28T09:53:18.505Z,2720.00
2019-05-28T09:54:18.446Z,2876.00
2019-05-28T09:55:18.444Z,3084.00
2019-05-28T09:56:18.347Z,3044.00
2019-05-28T09:57:18.299Z,3096.00
2019-05-28T09:58:18.255Z,3016.00
2019-05-28T09:59:18.220Z,3064.00
2019-05-28T10:00:18.177Z,3240.00
2019-05-28T10:01:18.108Z,3324.00
2019-05-28T10:02:18.056Z,3248.00
2019-05-28T10:03:18.025Z,3232.00
2019-05-28T10:04:17.957Z,3252.00
2019-05-28T10:05:17.932Z,3220.00
2019-05-28T10:06:18.313Z,3028.00
2019-05-28T10:07:17.925Z,2776.00
2019-05-28T10:08:17.766Z,2740.00
2019-05-28T10:09:17.723Z,2824.00
2019-05-28T10:10:17.685Z,2992.00
2019-05-28T10:11:17.633Z,3076.00
2019-05-28T10:12:17.566Z,3260.00
2019-05-28T10:13:17.625Z,3708.00
2019-05-28T10:14:17.462Z,4044.00
2019-05-28T10:15:17.422Z,4244.00
2019-05-28T10:16:17.398Z,4320.00
2019-05-28T10:17:17.325Z,4404.00
2019-05-28T10:18:17.270Z,4544.00
2019-05-28T10:19:17.223Z,4348.00
2019-05-28T10:20:17.173Z,4416.00
2019-05-28T10:21:19.115Z,4588.00
2019-05-28T10:22:17.105Z,4692.00
2019-05-28T10:23:17.023Z,4768.00
2019-05-28T10:24:16.985Z,4592.00
2019-05-28T10:25:16.927Z,4516.00
2019-05-28T10:26:16.894Z,4500.00
2019-05-28T10:27:16.823Z,4516.00
2019-05-28T10:28:16.781Z,5188.00
2019-05-28T10:29:16.738Z,5940.00
2019-05-28T10:30:16.683Z,6244.00
2019-05-28T10:31:16.659Z,6612.00
2019-05-28T10:32:16.582Z,7204.00
2019-05-28T10:33:16.534Z,7820.00
2019-05-28T10:34:16.487Z,7648.00
2019-05-28T10:35:16.441Z,7812.00
2019-05-28T10:36:32.145Z,7300.00
2019-05-28T10:37:16.337Z,6920.00
2019-05-28T10:38:17.212Z,6640.00
2019-05-28T10:39:16.254Z,6980.00
2019-05-28T10:40:16.187Z,7032.00
2019-05-28T10:41:16.162Z,6976.00
2019-05-28T10:42:16.093Z,6868.00
2019-05-28T10:43:16.040Z,5944.00
2019-05-28T10:44:16.013Z,5908.00
2019-05-28T10:45:15.945Z,7176.00
2019-05-28T10:46:16.077Z,7756.00
2019-05-28T10:47:15.846Z,7364.00
2019-05-28T10:48:15.800Z,7376.00
2019-05-28T10:49:15.752Z,7392.00
2019-05-28T10:50:15.700Z,5808.00
2019-05-28T10:51:15.681Z,5712.00
2019-05-28T10:52:15.626Z,6344.00
2019-05-28T10:53:15.559Z,7512.00
2019-05-28T10:54:15.515Z,6852.00
2019-05-28T10:55:16.068Z,7280.00
2019-05-28T10:56:15.448Z,8060.00
2019-05-28T10:57:15.365Z,7496.00
2019-05-28T10:58:15.314Z,7944.00
2019-05-28T10:59:15.266Z,7544.00
2019-05-28T11:00:15.261Z,7848.00
2019-05-28T11:01:15.186Z,7612.00
2019-05-28T11:02:15.120Z,7856.00
2019-05-28T11:03:15.073Z,7536.00
2019-05-28T11:04:15.026Z,7236.00
2019-05-28T11:05:14.985Z,7280.00
2019-05-28T11:06:14.959Z,6636.00
2019-05-28T11:07:14.880Z,6628.00
2019-05-28T11:08:14.828Z,7372.00
2019-05-28T11:09:14.785Z,6420.00
2019-05-28T11:10:23.905Z,7304.00
2019-05-28T11:11:14.711Z,7788.00
2019-05-28T11:12:14.639Z,7816.00
2019-05-28T11:13:14.601Z,7172.00
2019-05-28T11:14:14.540Z,6408.00
2019-05-28T11:15:14.498Z,6180.00
2019-05-28T11:16:14.473Z,6044.00
2019-05-28T11:17:14.408Z,6788.00
2019-05-28T11:18:14.352Z,7100.00
2019-05-28T11:19:14.315Z,7160.00
2019-05-28T11:20:14.261Z,7316.00
2019-05-28T11:21:14.232Z,7432.00
2019-05-28T11:22:14.164Z,6744.00
2019-05-28T11:23:14.113Z,7412.00
2019-05-28T11:24:14.090Z,7928.00
2019-05-28T11:25:14.023Z,7516.00
2019-05-28T11:26:13.991Z,6480.00
2019-05-28T11:27:13.978Z,6740.00
2019-05-28T11:28:13.871Z,7396.00
2019-05-28T11:29:13.826Z,6788.00
2019-05-28T11:30:13.785Z,7508.00
2019-05-28T11:31:13.759Z,8024.00
2019-05-28T11:32:13.680Z,8108.00
2019-05-28T11:33:17.230Z,8688.00
2019-05-28T11:34:13.585Z,8244.00
2019-05-28T11:35:13.541Z,7248.00
2019-05-28T11:36:13.520Z,6016.00
2019-05-28T11:37:13.458Z,5208.00
2019-05-28T11:38:13.394Z,5064.00
2019-05-28T11:39:13.341Z,6024.00
2019-05-28T11:40:13.362Z,6612.00
2019-05-28T11:41:13.270Z,5880.00
2019-05-28T11:42:13.215Z,5292.00
2019-05-28T11:43:13.157Z,5360.00
2019-05-28T11:44:13.122Z,4516.00
2019-05-28T11:45:14.633Z,3464.00
2019-05-28T11:46:13.033Z,2664.00
2019-05-28T11:47:12.967Z,2272.00
2019-05-28T11:48:12.918Z,2040.00
2019-05-28T11:49:12.862Z,2008.00
2019-05-28T11:50:12.816Z,2452.00
2019-05-28T11:51:12.786Z,3116.00
2019-05-28T11:52:12.720Z,4144.00
2019-05-28T11:53:12.696Z,4580.00
2019-05-28T11:54:12.628Z,5652.00
2019-05-28T11:55:12.581Z,5632.00
2019-05-28T11:56:12.547Z,5776.00
2019-05-28T11:57:12.485Z,5216.00
2019-05-28T11:58:12.431Z,5024.00
2019-05-28T11:59:12.381Z,5212.00
2019-05-28T12:00:12.334Z,5560.00
2019-05-28T12:01:12.317Z,6136.00
2019-05-28T12:02:12.232Z,5884.00
2019-05-28T12:03:12.182Z,5664.00
2019-05-28T12:04:12.140Z,6192.00
2019-05-28T12:05:12.090Z,6644.00
2019-05-28T12:06:12.070Z,7048.00
2019-05-28T12:07:24.993Z,6476.00
2019-05-28T12:08:11.950Z,5856.00
2019-05-28T12:09:11.899Z,5596.00
2019-05-28T12:10:11.846Z,6264.00
2019-05-28T12:11:11.816Z,6920.00
2019-05-28T12:12:11.753Z,6968.00
2019-05-28T12:13:11.787Z,5960.00
2019-05-28T12:14:11.661Z,4996.00
2019-05-28T12:15:11.606Z,4428.00
2019-05-28T12:16:11.588Z,4588.00
2019-05-28T12:17:11.509Z,5100.00
2019-05-28T12:18:11.475Z,5588.00
2019-05-28T12:19:11.416Z,6140.00
2019-05-28T12:20:11.910Z,5928.00
2019-05-28T12:21:11.341Z,5492.00
2019-05-28T12:22:11.262Z,5176.00
2019-05-28T12:23:12.211Z,4904.00
2019-05-28T12:24:11.171Z,5044.00
2019-05-28T12:25:11.113Z,5156.00
2019-05-28T12:26:11.072Z,5100.00
2019-05-28T12:27:11.039Z,5488.00